createdAt,value
2023-04-17T00:01:24.762Z,13.90
2023-04-17T00:04:10.473Z,15.67
2023-04-17T00:06:56.447Z,14.90
2023-04-17T00:09:41.636Z,13.70
2023-04-17T00:12:26.855Z,14.30
2023-04-17T00:15:12.556Z,13.13
2023-04-17T00:17:58.056Z,14.10
2023-04-17T00:20:43.330Z,12.67
2023-04-17T00:23:28.495Z,13.33
2023-04-17T00:26:13.898Z,14.60
2023-04-17T00:29:01.777Z,15.00
2023-04-17T00:31:49.150Z,14.40
2023-04-17T00:34:34.569Z,15.03
2023-04-17T00:37:20.039Z,13.63
2023-04-17T00:40:05.756Z,14.50
2023-04-17T00:42:51.071Z,14.87
2023-04-17T00:45:36.428Z,14.57
2023-04-17T00:48:22.069Z,14.63
2023-04-17T00:51:08.042Z,14.63
2023-04-17T00:53:54.464Z,14.60
2023-04-17T00:56:41.146Z,14.40
2023-04-17T00:59:28.288Z,14.97
2023-04-17T01:02:13.602Z,15.40
2023-04-17T01:04:58.813Z,13.40
2023-04-17T01:07:45.389Z,14.77
2023-04-17T01:10:30.725Z,13.47
2023-04-17T01:13:15.897Z,14.73
2023-04-17T01:16:01.745Z,14.97
2023-04-17T01:18:47.855Z,13.90
2023-04-17T01:21:33.398Z,14.73
2023-04-17T01:24:19.441Z,15.47
2023-04-17T01:27:05.060Z,14.63
2023-04-17T01:29:50.950Z,17.47
2023-04-17T01:32:37.814Z,15.97
2023-04-17T01:35:23.236Z,17.97
2023-04-17T01:38:08.458Z,18.57
2023-04-17T01:40:53.544Z,17.80
2023-04-17T01:43:43.738Z,17.93
2023-04-17T01:46:29.746Z,17.97
2023-04-17T01:49:15.060Z,19.10
2023-04-17T01:52:00.467Z,18.03
2023-04-17T01:54:45.789Z,17.77
2023-04-17T01:57:32.792Z,18.30
2023-04-17T02:00:18.183Z,17.07
2023-04-17T02:03:03.962Z,18.90
2023-04-17T02:05:50.470Z,17.60
2023-04-17T02:08:35.698Z,17.83
2023-04-17T02:11:22.242Z,17.93
2023-04-17T02:14:09.755Z,16.73
2023-04-17T02:16:55.145Z,15.60
2023-04-17T02:19:40.314Z,19.70
2023-04-17T02:25:35.731Z,15.93
2023-04-17T02:28:22.100Z,16.87
2023-04-17T02:31:08.636Z,17.43
2023-04-17T02:33:54.066Z,13.93
2023-04-17T02:36:39.297Z,15.73
2023-04-17T02:39:25.704Z,16.77
2023-04-17T02:42:11.156Z,16.57
2023-04-17T02:44:56.478Z,16.80
2023-04-17T02:47:42.097Z,15.63
2023-04-17T02:50:28.565Z,16.93
2023-04-17T02:53:24.967Z,15.43
2023-04-17T02:56:10.387Z,16.50
2023-04-17T02:58:55.633Z,15.53
2023-04-17T03:01:41.090Z,16.40
2023-04-17T03:04:26.806Z,15.60
2023-04-17T03:07:12.261Z,14.87
2023-04-17T03:09:57.691Z,16.00
2023-04-17T03:12:42.738Z,14.13
2023-04-17T03:15:28.265Z,14.43
2023-04-17T03:18:13.320Z,14.33
2023-04-17T03:20:58.504Z,15.20
2023-04-17T03:23:43.603Z,14.87
2023-04-17T03:26:29.081Z,15.43
2023-04-17T03:29:15.828Z,15.90
2023-04-17T03:32:01.019Z,12.93
2023-04-17T03:34:46.901Z,13.47
2023-04-17T03:37:32.450Z,13.13
2023-04-17T03:40:18.006Z,12.30
2023-04-17T03:43:05.115Z,12.63
2023-04-17T03:45:50.883Z,11.77
2023-04-17T03:48:36.741Z,11.77
2023-04-17T03:51:22.104Z,11.50
2023-04-17T03:54:07.264Z,11.90
2023-04-17T03:56:52.367Z,10.53
2023-04-17T03:59:38.027Z,13.10
2023-04-17T04:02:24.431Z,11.40
2023-04-17T04:05:11.845Z,12.67
2023-04-17T04:07:56.996Z,12.10
2023-04-17T04:10:52.777Z,12.80
2023-04-17T04:13:44.174Z,11.40
2023-04-17T04:16:30.242Z,11.27
2023-04-17T04:19:24.003Z,11.23
2023-04-17T04:22:09.884Z,10.40
2023-04-17T04:25:02.543Z,11.90
2023-04-17T04:28:02.648Z,11.67
2023-04-17T04:30:51.060Z,11.60
2023-04-17T04:33:38.962Z,10.73
2023-04-17T04:36:26.183Z,11.17
2023-04-17T04:39:22.771Z,10.90
2023-04-17T04:42:08.304Z,10.60
2023-04-17T04:45:06.061Z,11.07
2023-04-17T04:47:52.532Z,9.87
2023-04-17T04:50:38.275Z,9.23
2023-04-17T04:53:25.095Z,9.00
2023-04-17T04:56:13.906Z,10.27
2023-04-17T04:58:59.053Z,9.30
2023-04-17T05:01:45.016Z,10.13
2023-04-17T05:04:31.735Z,11.63
2023-04-17T05:07:19.100Z,9.90
2023-04-17T05:10:06.127Z,10.93
2023-04-17T05:12:54.734Z,9.67
2023-04-17T05:15:40.050Z,9.20
2023-04-17T05:18:26.567Z,9.37
2023-04-17T05:21:13.387Z,9.97
2023-04-17T05:23:58.842Z,10.87
2023-04-17T05:26:45.589Z,9.63
2023-04-17T05:29:31.690Z,9.63
2023-04-17T05:32:17.262Z,9.17
2023-04-17T05:35:15.295Z,11.27
2023-04-17T05:38:01.596Z,9.63
2023-04-17T05:40:46.997Z,11.33
2023-04-17T05:43:32.140Z,10.33
2023-04-17T05:46:17.633Z,9.30
2023-04-17T05:49:02.713Z,10.80
2023-04-17T05:51:48.392Z,9.17
2023-04-17T05:54:33.928Z,8.70
2023-04-17T05:57:19.343Z,8.37
2023-04-17T06:00:07.643Z,8.80
2023-04-17T06:02:59.772Z,9.93
2023-04-17T06:05:51.760Z,10.80
2023-04-17T06:08:37.832Z,9.50
2023-04-17T06:11:23.553Z,8.77
2023-04-17T06:14:08.837Z,8.50
2023-04-17T06:16:57.366Z,8.90
2023-04-17T06:19:43.121Z,8.60
2023-04-17T06:22:28.402Z,9.27
2023-04-17T06:25:13.791Z,8.77
2023-04-17T06:27:59.299Z,9.70
2023-04-17T06:30:44.715Z,10.90
2023-04-17T06:33:29.907Z,10.53
2023-04-17T06:36:15.884Z,10.80
2023-04-17T06:39:05.841Z,9.67
2023-04-17T06:41:51.345Z,9.97
2023-04-17T06:44:44.567Z,9.57
2023-04-17T06:47:32.142Z,10.03
2023-04-17T06:50:17.591Z,10.13
2023-04-17T06:53:02.926Z,9.83
2023-04-17T06:55:48.099Z,9.50
2023-04-17T06:58:33.564Z,9.57
2023-04-17T07:01:18.942Z,9.33
2023-04-17T07:04:04.535Z,9.37
2023-04-17T07:06:50.374Z,9.23
2023-04-17T07:09:35.955Z,8.93
2023-04-17T07:12:21.159Z,9.87
2023-04-17T07:15:06.739Z,9.53
2023-04-17T07:17:52.224Z,10.60
2023-04-17T07:20:37.729Z,11.40
2023-04-17T07:23:23.252Z,11.27
2023-04-17T07:26:08.806Z,10.27
2023-04-17T07:28:54.335Z,10.67
2023-04-17T07:31:39.756Z,11.13
2023-04-17T07:34:24.977Z,9.60
2023-04-17T07:37:10.195Z,10.27
2023-04-17T07:39:55.404Z,9.63
2023-04-17T07:42:40.725Z,10.30
2023-04-17T07:45:28.380Z,10.70
2023-04-17T07:48:13.569Z,10.80
2023-04-17T07:51:00.179Z,11.23
2023-04-17T07:53:45.587Z,12.67
2023-04-17T07:56:31.181Z,10.33
2023-04-17T07:59:16.807Z,10.60
2023-04-17T08:02:02.113Z,11.37
2023-04-17T08:04:47.772Z,11.27
2023-04-17T08:07:33.402Z,11.30
2023-04-17T08:10:18.628Z,9.90
2023-04-17T08:13:03.819Z,9.70
2023-04-17T08:15:49.014Z,9.63
2023-04-17T08:18:34.348Z,10.23
2023-04-17T08:21:19.793Z,9.97
2023-04-17T08:24:05.354Z,8.90
2023-04-17T08:26:50.920Z,9.80
2023-04-17T08:29:36.379Z,9.63
2023-04-17T08:32:22.109Z,9.37
2023-04-17T08:35:08.330Z,8.90
2023-04-17T08:37:53.752Z,8.87
2023-04-17T08:40:38.861Z,8.90
2023-04-17T08:43:28.524Z,8.17
2023-04-17T08:46:15.001Z,7.97
2023-04-17T08:49:03.031Z,9.10
2023-04-17T08:51:48.475Z,8.87
2023-04-17T08:54:33.828Z,8.70
2023-04-17T08:57:19.032Z,8.57
2023-04-17T09:00:05.312Z,9.10
2023-04-17T09:02:55.488Z,9.10
2023-04-17T09:05:42.338Z,7.67
2023-04-17T09:08:27.836Z,7.93
2023-04-17T09:11:18.947Z,8.70
2023-04-17T09:14:04.217Z,8.10
2023-04-17T09:16:55.411Z,7.80
2023-04-17T09:20:06.352Z,8.53
2023-04-17T09:23:03.388Z,7.33
2023-04-17T09:26:05.819Z,6.57
2023-04-17T09:29:08.772Z,5.90
2023-04-17T09:31:53.940Z,6.00
2023-04-17T09:34:42.586Z,6.60
2023-04-17T09:37:54.385Z,6.67
2023-04-17T09:40:41.574Z,7.63
2023-04-17T09:43:41.029Z,5.80
2023-04-17T09:46:43.174Z,6.53
2023-04-17T09:49:38.987Z,7.77
2023-04-17T09:52:24.635Z,7.87
2023-04-17T09:55:11.716Z,7.80
2023-04-17T09:57:59.299Z,5.87
2023-04-17T10:00:45.077Z,7.27
2023-04-17T10:03:30.919Z,6.60
2023-04-17T10:06:16.904Z,7.50
2023-04-17T10:09:02.682Z,9.47
2023-04-17T10:11:48.096Z,6.82
2023-04-17T10:14:36.449Z,7.57
2023-04-17T10:17:23.532Z,8.77
2023-04-17T10:20:17.799Z,6.57
2023-04-17T10:23:33.379Z,6.77
2023-04-17T10:26:24.431Z,6.77
2023-04-17T10:29:09.869Z,5.70
2023-04-17T10:32:14.641Z,6.43
2023-04-17T10:35:01.897Z,7.17
2023-04-17T10:37:47.258Z,6.57
2023-04-17T10:40:37.173Z,6.07
2023-04-17T10:43:22.923Z,7.40
2023-04-17T10:46:13.173Z,6.17
2023-04-17T10:48:58.711Z,8.03
2023-04-17T10:51:43.796Z,6.40
2023-04-17T10:54:32.846Z,6.15
2023-04-17T10:57:50.116Z,7.70
2023-04-17T11:00:37.299Z,8.05
2023-04-17T11:03:23.544Z,6.97
2023-04-17T11:06:09.913Z,7.60
2023-04-17T11:08:57.381Z,7.97
2023-04-17T11:11:45.064Z,7.63
2023-04-17T11:14:30.669Z,5.95
2023-04-17T11:17:16.168Z,7.55
2023-04-17T11:20:01.469Z,6.13
2023-04-17T11:22:47.826Z,6.35
2023-04-17T11:25:34.565Z,6.75
2023-04-17T11:28:20.769Z,6.75
2023-04-17T11:31:06.109Z,5.97
2023-04-17T11:33:51.574Z,6.43
2023-04-17T11:36:37.107Z,6.20
2023-04-17T11:39:28.092Z,6.70
2023-04-17T11:42:13.574Z,6.15
2023-04-17T11:45:07.372Z,6.60
2023-04-17T11:47:52.722Z,7.00
2023-04-17T11:50:38.682Z,7.00
2023-04-17T11:53:24.779Z,6.20
2023-04-17T11:56:15.672Z,6.85
2023-04-17T11:59:00.750Z,7.03
2023-04-17T12:01:52.208Z,5.97
2023-04-17T12:04:38.466Z,7.28
2023-04-17T12:07:24.056Z,6.65
2023-04-17T12:10:09.744Z,7.72
2023-04-17T12:12:55.155Z,6.05
2023-04-17T12:15:40.308Z,6.95
2023-04-17T12:18:25.764Z,6.13
2023-04-17T12:21:10.897Z,6.95
2023-04-17T12:23:56.470Z,7.78
2023-04-17T12:26:49.272Z,6.30
2023-04-17T12:29:44.080Z,6.60
2023-04-17T12:32:30.410Z,9.35
2023-04-17T12:35:16.156Z,7.22
2023-04-17T12:38:01.230Z,7.90
2023-04-17T12:40:46.876Z,10.20
2023-04-17T12:43:32.833Z,9.45
2023-04-17T12:46:18.420Z,11.50
2023-04-17T12:49:03.848Z,9.18
2023-04-17T12:51:49.595Z,7.60
2023-04-17T12:54:34.811Z,9.68
2023-04-17T12:57:20.911Z,8.15
2023-04-17T13:00:06.763Z,9.35
2023-04-17T13:02:52.202Z,7.97
2023-04-17T13:05:37.623Z,7.75
2023-04-17T13:08:22.916Z,9.65
2023-04-17T13:11:08.514Z,7.53
2023-04-17T13:13:53.950Z,7.45
2023-04-17T13:16:39.277Z,8.82
2023-04-17T13:19:24.766Z,8.45
2023-04-17T13:22:10.290Z,7.75
2023-04-17T13:24:55.677Z,7.78
2023-04-17T13:27:41.029Z,7.45
2023-04-17T13:30:26.288Z,7.88
2023-04-17T13:33:11.319Z,8.45
2023-04-17T13:35:56.939Z,7.78
2023-04-17T13:38:42.397Z,7.57
2023-04-17T13:41:28.442Z,7.88
2023-04-17T13:44:13.836Z,7.32
2023-04-17T13:46:59.769Z,8.63
2023-04-17T13:49:44.947Z,6.90
2023-04-17T13:52:30.386Z,11.90
2023-04-17T13:55:15.810Z,6.43
2023-04-17T13:58:01.208Z,8.38
2023-04-17T14:00:46.676Z,6.93
2023-04-17T14:03:32.702Z,5.78
2023-04-17T14:06:18.088Z,10.32
2023-04-17T14:09:03.452Z,10.00
2023-04-17T14:11:48.637Z,5.13
2023-04-17T14:14:34.265Z,4.57
2023-04-17T14:17:19.599Z,6.15
2023-04-17T14:20:06.019Z,12.20
2023-04-17T14:22:51.320Z,9.52
2023-04-17T14:25:37.866Z,7.50
2023-04-17T14:28:23.604Z,6.68
2023-04-17T14:31:08.978Z,7.28
2023-04-17T14:33:54.258Z,6.72
2023-04-17T14:36:39.652Z,7.60
2023-04-17T14:39:24.847Z,6.03
2023-04-17T14:42:10.180Z,8.85
2023-04-17T14:44:56.436Z,6.75
2023-04-17T14:47:41.814Z,10.00
2023-04-17T14:50:26.910Z,8.68
2023-04-17T14:53:12.271Z,8.57
2023-04-17T14:55:57.801Z,10.88
2023-04-17T14:58:43.604Z,8.38
2023-04-17T15:01:29.633Z,7.55
2023-04-17T15:04:15.762Z,10.40
2023-04-17T15:07:02.639Z,6.20
2023-04-17T15:09:48.179Z,6.95
2023-04-17T15:12:33.627Z,8.25
2023-04-17T15:15:19.279Z,9.35
2023-04-17T15:18:04.972Z,6.95
2023-04-17T15:20:50.348Z,7.15
2023-04-17T15:23:35.767Z,7.10
2023-04-17T15:26:22.355Z,6.57
2023-04-17T15:29:07.648Z,6.82
2023-04-17T15:31:53.433Z,8.30
2023-04-17T15:34:39.588Z,8.80
2023-04-17T15:37:25.013Z,6.95
2023-04-17T15:40:10.720Z,6.50
2023-04-17T15:42:56.063Z,8.32
2023-04-17T15:45:41.453Z,6.35
2023-04-17T15:48:27.920Z,6.82
2023-04-17T15:51:13.267Z,7.00
2023-04-17T15:53:58.614Z,7.95
2023-04-17T15:56:43.829Z,8.88
2023-04-17T15:59:29.382Z,6.63
2023-04-17T16:02:14.934Z,7.68
2023-04-17T16:05:00.801Z,6.97
2023-04-17T16:07:46.088Z,6.68
2023-04-17T16:10:31.251Z,5.63
2023-04-17T16:13:16.617Z,6.10
2023-04-17T16:16:01.724Z,7.72
2023-04-17T16:18:46.991Z,6.05
2023-04-17T16:21:32.220Z,8.10
2023-04-17T16:24:17.649Z,7.13
2023-04-17T16:27:03.013Z,7.75
2023-04-17T16:29:48.106Z,7.10
2023-04-17T16:32:33.948Z,6.25
2023-04-17T16:35:19.006Z,7.18
2023-04-17T16:38:04.570Z,6.45
2023-04-17T16:40:50.164Z,6.78
2023-04-17T16:43:35.529Z,7.17
2023-04-17T16:46:26.069Z,6.50
2023-04-17T16:49:17.207Z,7.20
2023-04-17T16:52:02.955Z,6.45
2023-04-17T16:54:48.469Z,6.53
2023-04-17T16:57:34.431Z,12.30
2023-04-17T17:00:20.500Z,7.75
2023-04-17T17:03:06.223Z,6.97
2023-04-17T17:05:51.622Z,7.53
2023-04-17T17:08:37.074Z,9.07
2023-04-17T17:11:23.249Z,6.93
2023-04-17T17:14:08.977Z,6.65
2023-04-17T17:16:54.705Z,8.77
2023-04-17T17:19:40.239Z,8.45
2023-04-17T17:22:25.354Z,8.88
2023-04-17T17:25:11.004Z,9.20
2023-04-17T17:27:56.426Z,8.38
2023-04-17T17:30:42.337Z,8.60
2023-04-17T17:33:29.377Z,7.35
2023-04-17T17:36:14.778Z,8.20
2023-04-17T17:39:00.437Z,9.02
2023-04-17T17:41:47.351Z,7.63
2023-04-17T17:44:33.026Z,6.75
2023-04-17T17:47:18.555Z,7.47
2023-04-17T17:50:04.045Z,9.40
2023-04-17T17:52:49.518Z,7.60
2023-04-17T17:55:34.882Z,8.23
2023-04-17T17:58:20.426Z,7.23
2023-04-17T18:01:06.168Z,9.63
2023-04-17T18:03:51.540Z,8.53
2023-04-17T18:06:37.335Z,7.87
2023-04-17T18:09:22.871Z,9.40
2023-04-17T18:12:08.109Z,8.17
2023-04-17T18:14:53.557Z,8.37
2023-04-17T18:17:39.055Z,8.30
2023-04-17T18:20:24.507Z,7.93
2023-04-17T18:23:09.884Z,7.97
2023-04-17T18:26:02.435Z,8.23
2023-04-17T18:28:48.040Z,10.03
2023-04-17T18:31:33.729Z,7.57
2023-04-17T18:34:19.417Z,8.37
2023-04-17T18:37:05.186Z,9.37
2023-04-17T18:39:54.856Z,9.07
2023-04-17T18:42:39.987Z,8.77
2023-04-17T18:45:25.968Z,10.17
2023-04-17T18:48:11.221Z,8.07
2023-04-17T18:50:56.651Z,10.47
2023-04-17T18:53:42.699Z,7.53
2023-04-17T18:56:28.217Z,8.33
2023-04-17T18:59:13.921Z,8.03
2023-04-17T19:01:59.260Z,7.70
2023-04-17T19:04:44.219Z,8.00
2023-04-17T19:07:30.067Z,7.83
2023-04-17T19:10:15.179Z,10.83
2023-04-17T19:13:00.518Z,8.33
2023-04-17T19:15:45.569Z,10.03
2023-04-17T19:18:31.113Z,8.77
2023-04-17T19:21:16.501Z,8.70
2023-04-17T19:24:01.810Z,8.83
2023-04-17T19:26:47.346Z,8.57
2023-04-17T19:29:32.682Z,9.83
2023-04-17T19:32:17.946Z,8.50
2023-04-17T19:35:03.847Z,8.07
2023-04-17T19:37:49.234Z,11.63
2023-04-17T19:40:35.287Z,10.97
2023-04-17T19:43:20.717Z,11.23
2023-04-17T19:46:06.166Z,8.00
2023-04-17T19:48:51.290Z,8.30
2023-04-17T19:51:37.811Z,9.53
2023-04-17T19:54:22.916Z,10.77
2023-04-17T19:57:08.128Z,10.47
2023-04-17T19:59:53.355Z,9.17
2023-04-17T20:02:38.870Z,10.50
2023-04-17T20:05:24.620Z,9.77
2023-04-17T20:08:10.047Z,11.53
2023-04-17T20:10:55.206Z,12.17
2023-04-17T20:13:41.591Z,9.20
2023-04-17T20:16:27.263Z,8.43
2023-04-17T20:19:13.402Z,8.70
2023-04-17T20:21:59.020Z,9.00
2023-04-17T20:24:44.118Z,9.20
2023-04-17T20:27:29.460Z,8.57
2023-04-17T20:30:15.169Z,7.93
2023-04-17T20:33:00.392Z,8.87
2023-04-17T20:35:46.148Z,11.17
2023-04-17T20:38:31.378Z,8.10
2023-04-17T20:41:16.968Z,8.90
2023-04-17T20:44:02.787Z,12.37
2023-04-17T20:46:48.392Z,9.57
2023-04-17T20:49:34.114Z,11.70
2023-04-17T20:52:19.826Z,10.00
2023-04-17T20:55:06.314Z,10.13
2023-04-17T20:57:52.273Z,8.73
2023-04-17T21:00:42.102Z,12.57
2023-04-17T21:03:33.498Z,9.47
2023-04-17T21:06:18.677Z,10.77
2023-04-17T21:09:04.264Z,10.80
2023-04-17T21:11:49.688Z,12.43
2023-04-17T21:14:36.784Z,12.27
2023-04-17T21:17:22.802Z,13.00
2023-04-17T21:20:09.084Z,13.87
2023-04-17T21:22:54.664Z,13.37
2023-04-17T21:25:39.773Z,12.97
2023-04-17T21:28:25.376Z,14.27
2023-04-17T21:31:14.208Z,14.00
2023-04-17T21:33:59.963Z,14.60
2023-04-17T21:36:45.649Z,13.97
2023-04-17T21:39:32.903Z,14.20
2023-04-17T21:42:18.445Z,14.23
2023-04-17T21:45:03.731Z,15.90
2023-04-17T21:47:49.370Z,16.07
2023-04-17T21:50:34.654Z,18.00
2023-04-17T21:53:20.135Z,15.83
2023-04-17T21:56:06.963Z,16.73
2023-04-17T21:58:52.770Z,17.50
2023-04-17T22:01:38.330Z,19.10
2023-04-17T22:04:23.867Z,17.83
2023-04-17T22:07:09.132Z,20.10
2023-04-17T22:09:54.332Z,19.67
2023-04-17T22:12:39.509Z,18.87
2023-04-17T22:15:24.950Z,20.87
2023-04-17T22:18:10.480Z,19.07
2023-04-17T22:20:56.106Z,22.07
2023-04-17T22:23:41.549Z,23.50
2023-04-17T22:26:27.868Z,23.70
2023-04-17T22:29:13.446Z,25.60
2023-04-17T22:31:59.012Z,28.80
2023-04-17T22:34:49.001Z,24.20
2023-04-17T22:37:34.450Z,23.37
2023-04-17T22:40:20.070Z,21.03
2023-04-17T22:43:05.667Z,20.93
2023-04-17T22:45:51.122Z,20.37
2023-04-17T22:48:36.594Z,18.17
2023-04-17T22:51:22.027Z,16.60
2023-04-17T22:54:19.058Z,15.67
2023-04-17T22:57:10.299Z,18.13
2023-04-17T22:59:55.757Z,17.23
2023-04-17T23:02:41.075Z,19.27
2023-04-17T23:05:26.354Z,18.40
2023-04-17T23:08:11.776Z,20.37
2023-04-17T23:11:01.572Z,19.50
2023-04-17T23:13:47.052Z,18.03
2023-04-17T23:16:32.737Z,18.77
2023-04-17T23:19:18.210Z,18.97
2023-04-17T23:22:03.371Z,16.23
2023-04-17T23:24:48.744Z,15.90
2023-04-17T23:27:34.089Z,14.37
2023-04-17T23:30:19.712Z,13.77
2023-04-17T23:33:05.348Z,13.33
2023-04-17T23:35:50.593Z,12.03
2023-04-17T23:38:36.153Z,11.10
2023-04-17T23:41:21.478Z,12.43
2023-04-17T23:44:06.706Z,11.23
2023-04-17T23:46:52.403Z,11.70
2023-04-17T23:49:37.683Z,12.73
2023-04-17T23:52:23.049Z,13.00
2023-04-17T23:55:11.379Z,12.87
2023-04-17T23:57:57.289Z,14.93
